LEVSLEGT

Guest
Details From LEVS - Cuatro Vientos
To LEGT - Getafe
Flight Number -
Tags generated
Created
Modified
Stats Distance 5 nm / 10 km
Max Altitude 0 ft / 0 m
Waypoints 2
Social Downloads 0
Likes 0
Share VATSIM

Download

Looking for another format? Having issues loading an existing format? Contact us
Advertisement - Login to hide

Notes

Basic altitude profile: - Ascent Rate: 2500ft/min - Ascent Speed: 250kts - Cruise Altitude: 35000ft - Cruise Speed: 420kts - Descent Rate: 1500ft/min - Descent Speed: 250kts Options: - Use NATs: yes - Use PACOTS: yes - Use low airways: yes - Use high airways: yes

Route

LEVS LEGT

ID Type Via Altitude Latitude Longitude Leg Dist Tot Dist Heading (true) Name
O LEVS APT - 0 ft / 0 m 40.37133˚ -3.78464˚ - 0 nm - Cuatro Vientos
O LEGT APT - 0 ft / 0 m 40.29315˚ -3.72248˚ 5 nm 5 nm 149° / 149° Getafe

Altitude Profile

Advertisement - Login to hide

LEVS

Details ICAO LEVS
Name Cuatro Vientos
Region Spain
Timezone Europe/Madrid (UTC+1.0)
Stats Elevation 2,267 ft / 691 m (AMSL)
Location 40.371330° -3.784644°
Runways 2
Magnetic Variation 0.749° W

METAR

LEVS 111900Z 23008KT 9999 SCT040 08/05 Q1001

Decode

TAF

Not found

Departure Runways

ID Width Length Bearing (true) Bearing (mag) Surface Threshold Offset Overrun Length
10 98 ft / 30 m 4,897 ft / 1,493 m 93.79° 94.54° Asphalt 0 ft / 0 m 197 ft / 60 m
10L 148 ft / 45 m 3,656 ft / 1,114 m 94.12° 94.87° Dirt 0 ft / 0 m 0 ft / 0 m
28 98 ft / 30 m 4,897 ft / 1,493 m 273.80° 274.55° Asphalt 0 ft / 0 m 197 ft / 60 m
28R 148 ft / 45 m 3,656 ft / 1,114 m 274.13° 274.88° Dirt 0 ft / 0 m 0 ft / 0 m

LEGT

Details ICAO LEGT
Name Getafe
Region Spain
Timezone Europe/Madrid (UTC+1.0)
Stats Elevation 2,029 ft / 618 m (AMSL)
Location 40.293152° -3.722481°
Runways 2
Magnetic Variation 0.727° W

METAR

LEGT 111900Z 25008KT 9999 FEW035 SCT045 06/03 Q1002

Decode

TAF

Not found

Destination Runways

ID Width Length Bearing (true) Bearing (mag) Surface Threshold Offset Overrun Length
05 197 ft / 60 m 8,130 ft / 2,478 m 45.08° 45.81° Asphalt 0 ft / 0 m 410 ft / 125 m
05R 98 ft / 30 m 3,093 ft / 943 m 44.78° 45.51° Dirt 0 ft / 0 m 0 ft / 0 m
23 197 ft / 60 m 8,130 ft / 2,478 m 225.10° 225.83° Asphalt 0 ft / 0 m 492 ft / 150 m
23L 98 ft / 30 m 3,093 ft / 943 m 224.79° 225.52° Dirt 0 ft / 0 m 0 ft / 0 m

Approach Navaids

Runway Type Ident Frequency Range Bearing (true) Bearing (mag) Slope Elevation
05 Localiser IGE 110.90 MHz 18 nm / 33 km 45.09° 45.82° - 2,029 ft / 618 m (AMSL)
05 Glidescope IGE 110.90 MHz 10 nm / 19 km 45.09° 45.82° 2.80° 2,029 ft / 618 m (AMSL)